Korneuburg, Austria
Current Conditions -  °F | °C
As of 6:50 PM on Thursday 27 Nov 2014 (Local Time) from LOXT Reporting Station
Broken Clouds Broken Clouds  
Wind Chill: 29°   Ceiling: 2200
Heat Index: 37°   Visibility: 8mi
Dew Point: 30°   Wind: 14mph
Humidity: 75%   Direction: 100°E
Pressure: 30"   Gusts: NA
Location:  48.35°N, 16.35°E
Report Text: LOXT 271650Z 10012KT 070V130 12KM BKN022SC 03/M01 Q1016 NOSIG RMK OVC
Loading
Personal Weather Stations






























Interactive Weather Map New forecast layout! Learn more

10-Day Weather Forecast

Advertisements
Track Severe Weather on mobile